Time;durP1;ratioP1;P1;durP2;ratioP2;P2;SDS_P1;SDS_P2;PMS_P1;PMS_P2;Temp;Humidity;BMP_temperature;BMP_pressure;BME280_temperature;BME280_humidity;BME280_pressure;Samples;Min_cycle;Max_cycle;Signal;HPM_P1;HPM_P2
2022/04/10 00:00:35;;;;;;;10.13;2.17;;;;;;;1.86;78.27;101977.53;5094102;28;20028;-77
2022/04/10 00:03:00;;;;;;;4.85;1.95;;;;;;;1.93;78.59;101973.78;5093894;28;20032;-78
2022/04/10 00:05:25;;;;;;;10.45;2.17;;;;;;;2.05;78.76;101971.63;5075668;28;20131;-78
2022/04/10 00:07:51;;;;;;;12.50;2.42;;;;;;;2.18;78.23;101972.91;5093432;28;20111;-78
2022/04/10 00:10:16;;;;;;;13.27;1.73;;;;;;;2.28;77.95;101974.28;5094127;28;20035;-78
2022/04/10 00:12:41;;;;;;;10.10;2.05;;;;;;;2.33;77.61;101974.09;5093857;28;20109;-80
2022/04/10 00:15:08;;;;;;;6.60;2.10;;;;;;;2.37;77.37;101974.81;5093267;28;20028;-80
2022/04/10 00:17:33;;;;;;;6.72;1.70;;;;;;;2.32;77.30;101967.13;5094336;28;20066;-80
2022/04/10 00:19:58;;;;;;;6.15;2.10;;;;;;;2.30;77.48;101968.97;5094260;28;20032;-78
2022/04/10 00:22:24;;;;;;;8.85;1.88;;;;;;;2.29;77.37;101975.13;5093804;28;20119;-79
2022/04/10 00:24:49;;;;;;;7.47;1.92;;;;;;;2.32;76.95;101969.75;5093725;28;20054;-79
2022/04/10 00:27:15;;;;;;;9.05;2.20;;;;;;;2.41;76.08;101964.13;5075472;28;20502;-78
2022/04/10 00:29:41;;;;;;;9.30;1.88;;;;;;;2.51;75.28;101969.91;5075439;28;20036;-78
2022/04/10 00:32:07;;;;;;;10.77;2.97;;;;;;;2.57;74.51;101966.19;5093133;28;20049;-79
2022/04/10 00:34:32;;;;;;;13.32;2.17;;;;;;;2.56;74.08;101964.47;5075031;28;20123;-79
2022/04/10 00:36:57;;;;;;;23.25;3.63;;;;;;;2.59;73.86;101962.56;5093082;28;20067;-78
2022/04/10 00:39:24;;;;;;;6.82;1.70;;;;;;;2.62;73.53;101962.44;5093489;28;20043;-77
2022/04/10 00:41:50;;;;;;;11.80;2.20;;;;;;;2.65;73.03;101958.84;5093443;28;20040;-78
2022/04/10 00:44:16;;;;;;;7.90;1.60;;;;;;;2.65;73.00;101964.09;5093568;28;20047;-78
2022/04/10 00:46:42;;;;;;;10.05;1.90;;;;;;;2.64;72.59;101965.88;5093505;28;20079;-78
2022/04/10 00:49:08;;;;;;;11.02;1.92;;;;;;;2.62;72.55;101959.81;5093480;28;20080;-78
2022/04/10 00:51:40;;;;;;;7.28;1.77;;;;;;;2.54;72.91;101961.91;5093211;28;20047;-78
2022/04/10 00:54:08;;;;;;;8.73;1.60;;;;;;;2.43;72.79;101959.69;5093048;28;20060;-78
2022/04/10 00:56:34;;;;;;;10.70;1.83;;;;;;;2.27;73.65;101959.41;5093480;28;20425;-78
2022/04/10 00:59:01;;;;;;;9.43;1.75;;;;;;;2.12;74.20;101960.00;5092922;28;20039;-79
2022/04/10 01:01:28;;;;;;;5.70;1.58;;;;;;;1.99;74.90;101962.22;5092863;28;20341;-80
2022/04/10 01:03:53;;;;;;;9.55;1.50;;;;;;;1.86;75.11;101960.94;5092841;28;20030;-80
2022/04/10 01:06:19;;;;;;;9.90;1.52;;;;;;;1.72;75.20;101961.44;5092840;28;20028;-80
2022/04/10 01:08:44;;;;;;;11.75;1.90;;;;;;;1.63;76.13;101960.00;5092358;28;20039;-78
2022/04/10 01:11:11;;;;;;;12.50;2.63;;;;;;;1.58;76.61;101965.41;5092701;28;20379;-80
2022/04/10 01:13:37;;;;;;;7.85;2.55;;;;;;;1.53;76.99;101976.97;5092714;28;20060;-80
2022/04/10 01:16:02;;;;;;;8.90;2.40;;;;;;;1.43;77.40;101972.94;5073980;28;20064;-79
2022/04/10 01:18:29;;;;;;;7.90;2.00;;;;;;;1.41;78.16;101971.22;5092445;28;20069;-78
2022/04/10 01:20:55;;;;;;;8.32;1.83;;;;;;;1.45;78.25;101972.00;5092328;28;20459;-79
2022/04/10 01:23:20;;;;;;;9.48;2.22;;;;;;;1.57;78.35;101979.44;5092579;28;20075;-80
2022/04/10 01:25:46;;;;;;;6.70;1.60;;;;;;;1.66;78.49;101972.16;5092446;28;20142;-80
2022/04/10 01:28:13;;;;;;;8.45;1.80;;;;;;;1.67;78.11;101974.72;5092422;28;20449;-79
2022/04/10 01:30:38;;;;;;;7.40;1.90;;;;;;;1.67;78.12;101976.47;5092707;28;20028;-78
2022/04/10 01:33:05;;;;;;;10.57;2.28;;;;;;;1.73;78.30;101978.88;5074074;28;20100;-78
2022/04/10 01:35:32;;;;;;;6.15;1.80;;;;;;;1.82;77.86;101981.22;5092132;28;20457;-78
2022/04/10 01:37:59;;;;;;;7.75;1.60;;;;;;;1.99;77.14;101980.59;5092207;28;20165;-79
2022/04/10 01:40:24;;;;;;;6.68;1.80;;;;;;;2.09;76.71;101986.34;5092168;28;20321;-78
2022/04/10 01:42:50;;;;;;;8.55;1.77;;;;;;;2.14;76.07;101978.31;5092423;28;20059;-78
2022/04/10 01:45:15;;;;;;;11.35;2.28;;;;;;;2.15;76.04;101980.00;5091800;28;20063;-78
2022/04/10 01:47:40;;;;;;;9.05;1.90;;;;;;;2.12;75.66;101983.63;5091956;28;20056;-78
2022/04/10 01:50:06;;;;;;;7.30;1.65;;;;;;;2.13;75.79;101981.84;5073929;28;20032;-79
2022/04/10 01:52:31;;;;;;;8.68;1.83;;;;;;;2.17;75.99;101986.09;5091813;28;20052;-78
2022/04/10 01:54:57;;;;;;;10.35;1.52;;;;;;;2.18;75.88;101990.41;5073897;28;20127;-79
2022/04/10 01:57:22;;;;;;;8.15;1.70;;;;;;;2.14;76.05;101988.84;5091836;28;20437;-80
2022/04/10 01:59:47;;;;;;;9.15;2.58;;;;;;;2.11;76.34;101984.53;5073427;28;20039;-80
2022/04/10 02:02:13;;;;;;;11.80;1.58;;;;;;;2.08;76.48;101982.88;5072954;28;20036;-80
2022/04/10 02:04:38;;;;;;;10.02;2.13;;;;;;;2.11;76.63;101992.41;5073290;28;20061;-79
2022/04/10 02:07:04;;;;;;;10.93;2.00;;;;;;;2.11;76.86;101987.16;5073034;28;20032;-80
2022/04/10 02:09:29;;;;;;;9.43;2.08;;;;;;;2.08;76.55;101987.28;5073124;28;20028;-79
2022/04/10 02:11:55;;;;;;;6.10;1.60;;;;;;;2.06;77.19;101989.97;5091458;28;20062;-79
2022/04/10 02:14:20;;;;;;;11.57;1.70;;;;;;;2.11;77.00;101993.25;5056174;28;20032;-78
2022/04/10 02:16:45;;;;;;;7.43;1.77;;;;;;;2.26;76.33;101998.88;5056268;28;20119;-79
2022/04/10 02:19:11;;;;;;;7.85;1.60;;;;;;;2.38;75.89;101995.78;5073514;28;20063;-78
2022/04/10 02:21:37;;;;;;;8.60;2.28;;;;;;;2.45;75.47;101993.78;5091060;28;20432;-78
2022/04/10 02:24:03;;;;;;;6.13;1.50;;;;;;;2.46;75.33;101993.72;5073221;28;20332;-80
2022/04/10 02:26:28;;;;;;;5.05;1.85;;;;;;;2.43;75.31;101993.84;5091343;28;20157;-79
2022/04/10 02:28:54;;;;;;;10.65;2.28;;;;;;;2.44;75.70;102000.81;5090886;28;20074;-79
2022/04/10 02:31:19;;;;;;;10.43;1.83;;;;;;;2.44;75.53;101994.69;5091173;28;20034;-79
2022/04/10 02:33:45;;;;;;;11.32;1.80;;;;;;;2.44;75.67;102000.81;5091265;28;20035;-79
2022/04/10 02:36:11;;;;;;;11.45;1.77;;;;;;;2.46;75.06;101992.84;5072574;28;20417;-79
2022/04/10 02:38:37;;;;;;;6.47;1.60;;;;;;;2.44;75.26;101984.19;5090814;28;20036;-79
2022/04/10 02:41:02;;;;;;;6.82;1.92;;;;;;;2.40;75.35;101988.69;5090804;28;20079;-80
2022/04/10 02:43:27;;;;;;;9.68;1.38;;;;;;;2.40;75.37;101988.69;5090905;28;20028;-79
2022/04/10 02:45:53;;;;;;;9.07;1.58;;;;;;;2.38;75.43;101993.16;5091071;28;20055;-79
2022/04/10 02:48:18;;;;;;;10.98;1.55;;;;;;;2.36;75.19;102008.13;5090810;28;20032;-78
2022/04/10 02:50:44;;;;;;;11.57;2.08;;;;;;;2.40;74.93;101999.19;5072560;28;20024;-78
2022/04/10 02:53:09;;;;;;;12.77;2.00;;;;;;;2.43;74.43;101996.47;5090360;28;20520;-79
2022/04/10 02:55:35;;;;;;;6.82;2.53;;;;;;;2.39;74.15;101997.50;5090482;28;20036;-79
2022/04/10 02:58:00;;;;;;;6.60;1.67;;;;;;;2.33;74.48;101996.84;5090660;28;20455;-78
2022/04/10 03:00:26;;;;;;;15.25;2.50;;;;;;;2.29;74.45;101998.75;5090564;28;20445;-79
2022/04/10 03:02:51;;;;;;;12.43;1.70;;;;;;;2.32;74.48;102003.03;5090458;28;20027;-78
2022/04/10 03:05:17;;;;;;;10.90;1.60;;;;;;;2.27;74.72;102008.47;5090516;28;20039;-79
2022/04/10 03:07:42;;;;;;;8.50;1.55;;;;;;;2.20;74.85;102007.81;5090458;28;20032;-80
2022/04/10 03:10:08;;;;;;;12.88;1.70;;;;;;;2.18;74.94;102006.16;5090597;28;20321;-78
2022/04/10 03:12:33;;;;;;;8.18;1.58;;;;;;;2.15;74.95;102009.78;5090239;28;20063;-78
2022/04/10 03:14:59;;;;;;;9.15;1.45;;;;;;;2.18;74.85;102009.66;5090334;28;20042;-77
2022/04/10 03:17:24;;;;;;;8.38;1.50;;;;;;;2.18;74.62;102014.03;5090601;28;20028;-78
2022/04/10 03:19:50;;;;;;;11.00;1.70;;;;;;;2.21;74.56;102011.31;5090191;28;20028;-77
2022/04/10 03:22:15;;;;;;;12.32;2.33;;;;;;;2.21;74.90;102016.56;5089900;28;20047;-80
2022/04/10 03:24:40;;;;;;;7.03;1.70;;;;;;;2.23;74.70;102020.00;5090343;28;20502;-80
2022/04/10 03:27:06;;;;;;;12.45;2.15;;;;;;;2.28;74.48;102023.31;5055277;28;20115;-79
2022/04/10 03:29:31;;;;;;;6.95;1.70;;;;;;;2.24;74.01;102017.31;5090193;28;20372;-79
2022/04/10 03:31:57;;;;;;;5.32;1.45;;;;;;;2.14;74.38;102028.22;5089696;28;20437;-78
2022/04/10 03:34:23;;;;;;;8.48;1.70;;;;;;;2.01;74.60;102023.38;5090031;28;20028;-78
2022/04/10 03:36:48;;;;;;;14.05;1.73;;;;;;;1.98;75.46;102027.91;5055010;28;20483;-78
2022/04/10 03:39:14;;;;;;;3.45;1.50;;;;;;;1.97;75.64;102028.81;5089944;28;20087;-78
2022/04/10 03:41:39;;;;;;;6.38;1.38;;;;;;;1.98;75.84;102020.88;5054812;28;20060;-78
2022/04/10 03:44:05;;;;;;;8.18;1.75;;;;;;;1.99;76.57;102025.22;5071926;28;20391;-78
2022/04/10 03:46:30;;;;;;;9.20;1.85;;;;;;;1.98;76.53;102025.28;5071407;28;20189;-79
2022/04/10 03:48:56;;;;;;;6.63;1.40;;;;;;;1.99;76.87;102024.38;5089955;28;20058;-79
2022/04/10 03:51:21;;;;;;;7.63;1.33;;;;;;;1.95;76.48;102026.22;5072098;28;20028;-78
2022/04/10 03:53:46;;;;;;;6.82;1.55;;;;;;;1.96;76.98;102025.34;5090479;28;20032;-79
2022/04/10 03:56:12;;;;;;;8.52;1.95;;;;;;;1.90;76.74;102026.41;5089994;28;20367;-79
2022/04/10 03:58:37;;;;;;;8.93;1.90;;;;;;;1.80;76.64;102035.50;5089996;28;20077;-79
2022/04/10 04:01:03;;;;;;;12.02;1.48;;;;;;;1.72;77.33;102034.91;5089947;28;20047;-79
2022/04/10 04:03:28;;;;;;;10.07;1.52;;;;;;;1.63;77.54;102032.59;5089650;28;20032;-79
2022/04/10 04:05:55;;;;;;;8.15;1.63;;;;;;;1.64;78.38;102036.94;5054788;28;20417;-79
2022/04/10 04:08:20;;;;;;;8.35;1.65;;;;;;;1.65;78.56;102042.13;5089732;28;20035;-79
2022/04/10 04:10:46;;;;;;;10.98;1.95;;;;;;;1.63;78.58;102046.59;5071545;28;20119;-79
2022/04/10 04:13:11;;;;;;;7.00;1.65;;;;;;;1.59;78.98;102051.06;5071950;28;20028;-79
2022/04/10 04:15:36;;;;;;;8.15;1.50;;;;;;;1.55;79.08;102048.59;5089697;28;20138;-79
2022/04/10 04:18:02;;;;;;;6.50;1.60;;;;;;;1.52;79.61;102048.69;5071090;28;20062;-79
2022/04/10 04:20:28;;;;;;;11.13;1.67;;;;;;;1.51;79.84;102052.25;5071204;28;20024;-78
2022/04/10 04:22:54;;;;;;;5.47;1.58;;;;;;;1.54;80.01;102044.28;5089715;28;20074;-78
2022/04/10 04:25:19;;;;;;;13.30;1.98;;;;;;;1.61;80.28;102058.88;5089472;28;20060;-80
2022/04/10 04:27:45;;;;;;;7.03;1.80;;;;;;;1.67;80.31;102060.44;5071221;28;20490;-78
2022/04/10 04:30:11;;;;;;;7.38;1.88;;;;;;;1.65;80.13;102054.41;5089784;28;20107;-78
2022/04/10 04:32:36;;;;;;;9.73;1.95;;;;;;;1.57;79.74;102050.25;5089380;28;20047;-78
2022/04/10 04:35:02;;;;;;;3.60;1.58;;;;;;;1.47;80.05;102051.47;5071200;28;20343;-78
2022/04/10 04:37:28;;;;;;;4.22;1.50;;;;;;;1.40;80.89;102058.69;5090168;28;20032;-78
2022/04/10 04:39:53;;;;;;;9.82;1.80;;;;;;;1.35;81.15;102057.97;5090065;28;20043;-78
2022/04/10 04:42:18;;;;;;;12.65;2.70;;;;;;;1.35;81.40;102057.97;5089216;28;20052;-78
2022/04/10 04:44:44;;;;;;;9.18;2.15;;;;;;;1.38;81.94;102067.53;5091460;28;20042;-79
2022/04/10 04:47:09;;;;;;;5.22;2.00;;;;;;;1.39;81.94;102062.22;5074848;28;20024;-79
2022/04/10 04:49:34;;;;;;;5.90;2.20;;;;;;;1.34;81.97;102066.75;5093469;28;20437;-79
2022/04/10 04:52:00;;;;;;;5.82;1.58;;;;;;;1.26;81.64;102068.78;5093155;28;20115;-78
2022/04/10 04:54:25;;;;;;;5.30;1.88;;;;;;;1.18;81.71;102073.38;5092848;28;20094;-80
2022/04/10 04:56:50;;;;;;;11.65;2.17;;;;;;;1.09;82.13;102074.56;5092945;28;20059;-80
2022/04/10 04:59:16;;;;;;;1.70;1.10;;;;;;;1.00;82.24;102077.44;5074278;28;20148;-78
2022/04/10 05:01:42;;;;;;;8.90;1.77;;;;;;;0.98;82.55;102071.38;5074412;28;20440;-79
2022/04/10 05:04:08;;;;;;;11.05;3.08;;;;;;;0.99;83.39;102081.81;5092828;28;20090;-79
2022/04/10 05:06:33;;;;;;;10.75;2.25;;;;;;;1.02;83.82;102083.50;5074167;28;20067;-80
2022/04/10 05:08:59;;;;;;;4.95;1.83;;;;;;;1.00;83.83;102080.06;5093012;28;20367;-78
2022/04/10 05:11:25;;;;;;;10.95;2.13;;;;;;;1.01;84.05;102080.00;5092437;28;20058;-78
2022/04/10 05:13:50;;;;;;;8.60;1.75;;;;;;;1.11;84.65;102085.00;5074229;28;20129;-78
2022/04/10 05:16:16;;;;;;;7.95;2.03;;;;;;;1.20;84.91;102087.31;5074497;28;20451;-79
2022/04/10 05:18:41;;;;;;;7.93;1.70;;;;;;;1.28;84.91;102093.16;5092621;28;20103;-78
2022/04/10 05:21:07;;;;;;;6.28;1.90;;;;;;;1.31;84.75;102095.69;5074137;28;20028;-79
2022/04/10 05:23:33;;;;;;;6.55;1.55;;;;;;;1.35;85.06;102096.47;5092271;28;20085;-79
2022/04/10 05:25:58;;;;;;;4.50;1.48;;;;;;;1.61;84.86;102106.09;5092486;28;20444;-78
2022/04/10 05:28:24;;;;;;;8.93;1.85;;;;;;;1.80;84.11;102101.09;5074153;28;20051;-79
2022/04/10 05:30:49;;;;;;;6.80;2.00;;;;;;;1.90;83.19;102101.69;5093095;28;20081;-78
2022/04/10 05:33:15;;;;;;;7.80;1.80;;;;;;;1.99;82.93;102105.75;5092359;28;20409;-79
2022/04/10 05:35:41;;;;;;;7.22;1.75;;;;;;;2.08;82.47;102115.94;5092157;28;20054;-79
2022/04/10 05:38:08;;;;;;;3.42;1.73;;;;;;;2.20;82.54;102112.88;5092122;28;20341;-78
2022/04/10 05:40:33;;;;;;;10.52;2.05;;;;;;;2.43;81.17;102122.59;5091862;28;20042;-79
2022/04/10 05:42:59;;;;;;;9.00;1.90;;;;;;;2.60;79.59;102119.34;5073816;28;20043;-79
2022/04/10 05:45:24;;;;;;;7.63;1.40;;;;;;;2.73;78.67;102121.50;5073754;28;20040;-78
2022/04/10 05:47:50;;;;;;;8.20;2.13;;;;;;;2.76;78.12;102118.75;5092188;28;20107;-78
2022/04/10 05:50:16;;;;;;;12.93;1.98;;;;;;;2.78;77.09;102122.19;5092066;28;20042;-78
2022/04/10 05:52:50;;;;;;;7.75;1.48;;;;;;;2.82;76.78;102122.03;5073609;28;20036;-78
2022/04/10 05:55:17;;;;;;;10.05;1.55;;;;;;;2.91;76.23;102139.22;5073303;28;20054;-78
2022/04/10 05:57:43;;;;;;;9.77;1.50;;;;;;;3.08;75.26;102143.84;5091520;28;20483;-78
2022/04/10 06:00:14;;;;;;;8.13;1.88;;;;;;;3.20;74.53;102146.94;5091965;28;20443;-78
2022/04/10 06:02:40;;;;;;;10.32;1.67;;;;;;;3.25;75.14;102135.28;5091756;28;20503;-78
2022/04/10 06:05:06;;;;;;;15.85;2.45;;;;;;;3.29;74.84;102136.88;5091648;28;20036;-77
2022/04/10 06:07:32;;;;;;;9.27;1.40;;;;;;;3.40;74.60;102135.63;5091846;28;20028;-80
2022/04/10 06:09:58;;;;;;;4.97;1.50;;;;;;;3.51;74.24;102142.16;5091660;28;20039;-79
2022/04/10 06:12:24;;;;;;;3.67;1.42;;;;;;;3.67;73.52;102146.81;5073614;28;20171;-80
2022/04/10 06:14:49;;;;;;;6.63;2.20;;;;;;;3.79;72.91;102148.06;5091838;28;20024;-79
2022/04/10 06:17:15;;;;;;;7.65;1.83;;;;;;;3.87;73.08;102152.09;5091298;28;20093;-79
2022/04/10 06:19:40;;;;;;;7.97;1.50;;;;;;;3.95;73.01;102154.41;5091769;28;20036;-80
2022/04/10 06:22:07;;;;;;;12.85;1.85;;;;;;;4.10;71.46;102158.19;5073044;28;20063;-80
2022/04/10 06:24:33;;;;;;;5.55;1.40;;;;;;;4.34;70.66;102163.34;5091722;28;20067;-81
2022/04/10 06:26:58;;;;;;;8.40;1.80;;;;;;;4.51;69.99;102163.47;5091414;28;20057;-80
2022/04/10 06:29:23;;;;;;;6.25;1.45;;;;;;;4.67;69.58;102158.38;5072993;28;20032;-77
2022/04/10 06:31:49;;;;;;;4.65;1.40;;;;;;;4.76;69.51;102162.34;5091385;28;20056;-78
2022/04/10 06:34:15;;;;;;;9.55;2.63;;;;;;;4.80;69.70;102169.22;5090797;28;20032;-78
2022/04/10 06:36:40;;;;;;;7.68;1.60;;;;;;;4.85;68.91;102161.97;5091657;28;20032;-79
2022/04/10 06:39:06;;;;;;;8.57;1.63;;;;;;;4.94;67.93;102168.59;5073160;28;20040;-80
2022/04/10 06:41:31;;;;;;;4.35;1.70;;;;;;;4.99;66.83;102169.25;5069888;28;20049;-79
2022/04/10 06:43:57;;;;;;;7.15;1.58;;;;;;;5.01;66.45;102175.28;5071909;28;20078;-79
2022/04/10 06:46:23;;;;;;;8.45;1.33;;;;;;;5.03;66.00;102176.09;5052725;28;20170;-79
2022/04/10 06:48:49;;;;;;;3.13;1.25;;;;;;;5.10;65.64;102181.94;5053451;28;20040;-80
2022/04/10 06:51:16;;;;;;;4.35;1.48;;;;;;;5.15;65.11;102185.22;5071446;28;20071;-80
2022/04/10 06:53:42;;;;;;;5.70;1.45;;;;;;;5.25;65.10;102194.41;5069494;28;20496;-79
2022/04/10 06:56:08;;;;;;;8.23;1.67;;;;;;;5.38;64.99;102194.72;5069732;28;20032;-79
2022/04/10 06:58:34;;;;;;;8.52;2.08;;;;;;;5.48;64.43;102188.06;5070407;28;20052;-79
2022/04/10 07:00:59;;;;;;;6.72;1.30;;;;;;;5.63;63.58;102197.03;5071286;28;20358;-81
2022/04/10 07:03:24;;;;;;;7.88;1.65;;;;;;;5.75;62.72;102192.09;5070312;28;20469;-80
2022/04/10 07:05:50;;;;;;;6.38;1.38;;;;;;;5.85;62.14;102195.13;5070637;28;20066;-81
2022/04/10 07:08:15;;;;;;;6.07;1.50;;;;;;;5.93;62.14;102196.47;5073241;28;20055;-81
2022/04/10 07:10:41;;;;;;;4.97;1.20;;;;;;;5.97;61.86;102200.72;5077360;28;20448;-81
2022/04/10 07:13:06;;;;;;;4.55;1.33;;;;;;;6.03;61.71;102207.50;5074665;28;20078;-82
2022/04/10 07:15:32;;;;;;;8.38;1.60;;;;;;;6.11;61.32;102201.81;5075331;28;20127;-80
2022/04/10 07:17:58;;;;;;;2.47;1.27;;;;;;;6.22;60.88;102195.97;5073594;28;20032;-80
2022/04/10 07:20:24;;;;;;;7.22;1.33;;;;;;;6.33;59.96;102204.25;5071093;28;20086;-81
2022/04/10 07:25:34;;;;;;;7.28;1.63;;;;;;;6.44;58.39;102203.69;5073762;28;20055;-82
2022/04/10 07:28:00;;;;;;;5.80;1.30;;;;;;;6.45;58.76;102203.59;5074228;28;20090;-82
2022/04/10 07:30:26;;;;;;;3.42;1.30;;;;;;;6.52;58.20;102212.06;5071543;28;20062;-82
2022/04/10 07:32:57;;;;;;;7.93;1.25;;;;;;;6.78;57.81;102220.44;5071995;28;20040;-81
2022/04/10 07:35:24;;;;;;;2.88;1.00;;;;;;;7.04;54.67;102221.69;5070890;28;20425;-82
2022/04/10 07:37:51;;;;;;;5.07;1.20;;;;;;;7.21;55.96;102223.41;5071943;28;20342;-82
2022/04/10 07:40:19;;;;;;;3.30;1.00;;;;;;;7.34;54.67;102226.28;5073205;28;20058;-81
2022/04/10 07:42:44;;;;;;;6.28;1.80;;;;;;;7.41;54.66;102240.88;5087577;28;20123;-81
2022/04/10 07:47:25;;;;;;;5.07;1.38;;;;;;;7.55;53.19;102229.53;5091384;28;20051;-79
2022/04/10 07:47:58;;;;;;;7.93;1.48;;;;;;;7.57;53.51;102243.56;5091918;28;20044;-79
2022/04/10 07:50:24;;;;;;;8.43;1.50;;;;;;;7.58;53.05;102246.13;5092711;28;20028;-79
2022/04/10 07:52:50;;;;;;;7.13;1.42;;;;;;;7.71;53.33;102246.28;5091685;28;20445;-81
2022/04/10 07:55:15;;;;;;;4.07;1.38;;;;;;;7.88;52.59;102253.28;5091188;28;20329;-81
2022/04/10 07:57:41;;;;;;;9.07;1.40;;;;;;;8.06;51.32;102238.13;5055861;28;20463;-80
2022/04/10 08:00:06;;;;;;;4.53;1.23;;;;;;;8.21;51.37;102249.63;5072629;28;20032;-80
2022/04/10 08:02:32;;;;;;;6.00;1.50;;;;;;;8.32;50.83;102250.81;5071995;28;20432;-82
2022/04/10 08:04:57;;;;;;;3.47;1.10;;;;;;;8.33;50.32;102250.72;5090741;28;20078;-81
2022/04/10 08:07:23;;;;;;;6.85;1.23;;;;;;;8.40;49.05;102248.56;5090364;28;20028;-82
2022/04/10 08:09:48;;;;;;;5.55;1.63;;;;;;;8.38;49.18;102253.94;5071535;28;20035;-80
2022/04/10 08:12:13;;;;;;;3.25;1.40;;;;;;;8.58;49.90;102254.59;5072229;28;20468;-81
2022/04/10 08:14:39;;;;;;;4.47;1.30;;;;;;;9.35;48.69;102263.19;5055966;28;20070;-81
2022/04/10 08:17:05;;;;;;;2.15;0.90;;;;;;;9.97;46.92;102257.47;5090615;28;20073;-82
2022/04/10 08:19:30;;;;;;;4.97;1.30;;;;;;;10.30;44.24;102263.28;5092530;28;20040;-79
2022/04/10 08:21:56;;;;;;;5.88;1.30;;;;;;;9.78;47.27;102267.56;5095426;28;20417;-83
2022/04/10 08:24:21;;;;;;;7.82;1.40;;;;;;;9.65;48.09;102268.34;5078639;28;20480;-82
2022/04/10 08:26:47;;;;;;;5.22;1.50;;;;;;;10.07;47.71;102269.16;5078119;28;20193;-83
2022/04/10 08:29:12;;;;;;;4.65;1.50;;;;;;;10.43;46.36;102274.84;5094016;28;20036;-80
2022/04/10 08:31:38;;;;;;;3.92;1.30;;;;;;;10.90;44.57;102262.78;5094023;28;20062;-82
2022/04/10 08:34:03;;;;;;;9.40;1.50;;;;;;;10.73;44.25;102271.06;5095098;28;20039;-81
2022/04/10 08:36:29;;;;;;;3.97;1.05;;;;;;;10.26;43.14;102267.13;5096604;28;20036;-82
2022/04/10 08:38:55;;;;;;;5.57;1.00;;;;;;;10.08;42.50;102272.69;5095853;28;20487;-81
2022/04/10 08:41:29;;;;;;;6.22;1.50;;;;;;;9.89;43.60;102278.34;5093663;28;20086;-81
2022/04/10 08:43:54;;;;;;;5.35;1.33;;;;;;;10.11;45.00;102274.31;5094391;28;20036;-82
2022/04/10 08:46:21;;;;;;;5.63;1.42;;;;;;;9.99;45.44;102278.63;5077501;28;20451;-81
2022/04/10 08:48:49;;;;;;;4.05;1.35;;;;;;;9.98;43.21;102282.22;5077916;28;20516;-82
2022/04/10 08:51:14;;;;;;;5.57;1.73;;;;;;;10.71;42.56;102281.81;5093955;28;20050;-81
2022/04/10 08:53:40;;;;;;;4.97;1.30;;;;;;;11.07;42.09;102280.22;5094834;28;20473;-81
2022/04/10 08:56:08;;;;;;;6.10;1.48;;;;;;;11.91;42.27;102282.28;5095504;28;20032;-82
2022/04/10 08:58:34;;;;;;;8.20;3.13;;;;;;;12.81;39.50;102274.66;5094424;28;20043;-81
2022/04/10 09:00:59;;;;;;;3.70;1.25;;;;;;;13.84;34.79;102271.00;5093848;28;20123;-81
2022/04/10 09:03:25;;;;;;;4.47;1.52;;;;;;;14.77;33.23;102269.50;5093956;28;20105;-82
2022/04/10 09:06:03;;;;;;;4.40;1.35;;;;;;;15.53;32.00;102276.34;5094530;28;20051;-82
2022/04/10 09:08:28;;;;;;;4.93;1.50;;;;;;;16.52;31.84;102270.09;5093076;28;20032;-81
2022/04/10 09:10:59;;;;;;;3.53;1.10;;;;;;;17.35;30.27;102273.00;5093765;28;20028;-82
2022/04/10 09:13:31;;;;;;;6.97;1.73;;;;;;;17.49;28.56;102268.09;5093357;28;20035;-81
2022/04/10 09:16:01;;;;;;;7.32;1.60;;;;;;;17.66;29.11;102278.06;5093164;28;20130;-81
2022/04/10 09:18:27;;;;;;;6.10;1.70;;;;;;;18.05;27.67;102271.59;5094001;28;20032;-81
2022/04/10 09:21:09;;;;;;;5.65;1.85;;;;;;;18.04;27.29;102272.59;5093222;28;20028;-81
2022/04/10 09:23:35;;;;;;;3.85;1.40;;;;;;;18.01;28.54;102275.59;5093166;28;20488;-81
2022/04/10 09:26:00;;;;;;;5.20;1.63;;;;;;;17.97;28.40;102275.91;5093229;28;20063;-81
2022/04/10 09:28:46;;;;;;;5.95;1.58;;;;;;;18.20;27.08;102279.97;5075344;28;20028;-81
2022/04/10 09:31:32;;;;;;;4.22;1.35;;;;;;;18.64;26.14;102286.22;5074633;28;20150;-82
2022/04/10 09:34:02;;;;;;;7.00;1.65;;;;;;;18.47;25.32;102279.03;5093622;28;20024;-83
2022/04/10 09:36:42;;;;;;;8.02;1.65;;;;;;;18.09;27.95;102278.34;5075085;28;20440;-82
2022/04/10 09:39:12;;;;;;;4.30;1.50;;;;;;;18.36;26.70;102281.97;5094287;28;20353;-81
2022/04/10 09:41:39;;;;;;;5.68;1.50;;;;;;;18.63;27.40;102279.16;5074917;28;20072;-80
2022/04/10 09:44:19;;;;;;;5.90;1.80;;;;;;;19.00;26.92;102286.19;5092661;28;20081;-81
2022/04/10 09:46:59;;;;;;;7.88;1.55;;;;;;;18.32;26.54;102284.13;5092897;28;20119;-80
2022/04/10 09:49:30;;;;;;;9.10;1.60;;;;;;;18.38;25.54;102288.06;5074561;28;20103;-81
2022/04/10 09:51:58;;;;;;;;;;;;;;;18.55;25.88;102287.19;5093072;28;20036;-82
2022/04/10 09:54:24;;;;;;;4.70;1.20;;;;;;;18.95;24.82;102287.66;5073997;28;19911;-82
2022/04/10 09:56:50;;;;;;;4.55;1.60;;;;;;;18.79;25.42;102283.81;5092468;28;20055;-80
2022/04/10 09:59:22;;;;;;;6.05;1.50;;;;;;;18.57;26.77;102279.78;5092207;28;20457;-82
2022/04/10 10:01:48;;;;;;;4.30;1.48;;;;;;;18.13;28.12;102291.34;5073753;28;20159;-81
2022/04/10 10:04:16;;;;;;;4.60;1.25;;;;;;;18.46;24.71;102288.13;5092394;28;20412;-81
2022/04/10 10:06:42;;;;;;;5.60;1.52;;;;;;;18.80;25.93;102281.97;5075065;28;20063;-82
2022/04/10 10:09:08;;;;;;;4.63;1.50;;;;;;;19.24;24.60;102292.69;5057080;28;20441;-80
2022/04/10 10:11:34;;;;;;;4.15;1.92;;;;;;;19.46;24.44;102285.88;5073895;28;20043;-82
2022/04/10 10:14:00;;;;;;;8.68;1.63;;;;;;;18.98;26.47;102285.47;5092263;28;20039;-81
2022/04/10 10:16:26;;;;;;;8.05;1.73;;;;;;;19.28;26.05;102282.44;5092262;28;20081;-81
2022/04/10 10:18:52;;;;;;;4.22;1.42;;;;;;;19.45;24.20;102284.19;5091555;28;20028;-80
2022/04/10 10:21:18;;;;;;;5.25;1.60;;;;;;;19.08;26.85;102277.28;5073276;28;20036;-80
2022/04/10 10:23:48;;;;;;;6.70;1.73;;;;;;;19.39;25.14;102274.03;5056680;28;20070;-81
2022/04/10 10:26:40;;;;;;;5.85;1.40;;;;;;;20.26;24.38;102285.41;5091823;28;20024;-80
2022/04/10 10:29:52;;;;;;;5.43;1.67;;;;;;;20.12;24.61;102290.63;5091565;28;20036;-81
2022/04/10 10:32:26;;;;;;;6.10;1.63;;;;;;;19.30;26.34;102285.81;5008493;28;20133;-81
2022/04/10 10:34:52;;;;;;;6.95;1.67;;;;;;;19.48;26.35;102285.72;5009038;28;20040;-81
2022/04/10 10:37:31;;;;;;;4.13;1.70;;;;;;;19.78;26.70;102286.16;5035348;28;20437;-82
2022/04/10 10:39:58;;;;;;;5.70;1.70;;;;;;;20.15;25.57;102284.88;5091302;28;20089;-80
2022/04/10 10:42:24;;;;;;;7.18;1.95;;;;;;;19.62;25.20;102282.41;5090729;28;20188;-79
2022/04/10 10:44:50;;;;;;;4.95;1.58;;;;;;;17.98;27.82;102280.28;5092036;28;20090;-80
2022/04/10 10:47:22;;;;;;;8.02;1.60;;;;;;;17.19;28.45;102281.69;5091581;28;20040;-79
2022/04/10 10:49:50;;;;;;;8.63;1.90;;;;;;;17.40;30.13;102286.81;5091361;28;20454;-79
2022/04/10 10:52:17;;;;;;;7.63;2.00;;;;;;;18.35;27.38;102286.53;5090943;28;20028;-83
2022/04/10 10:54:57;;;;;;;5.88;1.70;;;;;;;18.32;26.77;102284.97;5073051;28;20070;-82
2022/04/10 10:57:41;;;;;;;4.40;1.73;;;;;;;18.52;26.69;102284.78;5092148;28;20028;-82
2022/04/10 11:00:12;;;;;;;7.10;1.73;;;;;;;19.16;26.67;102282.69;5073490;28;20278;-83
2022/04/10 11:02:39;;;;;;;4.43;1.30;;;;;;;19.66;24.49;102278.38;5091970;28;20020;-82
2022/04/10 11:05:29;;;;;;;5.45;1.50;;;;;;;19.77;25.89;102281.78;5091771;28;20032;-82
2022/04/10 11:08:13;;;;;;;4.57;1.67;;;;;;;19.69;26.04;102277.16;5091338;28;20537;-81
2022/04/10 11:10:50;;;;;;;9.95;1.77;;;;;;;19.46;27.03;102280.47;5091386;28;20029;-82
2022/04/10 11:13:18;;;;;;;3.78;1.70;;;;;;;19.01;27.22;102273.53;5090766;28;20020;-81
2022/04/10 11:15:52;;;;;;;6.32;1.88;;;;;;;19.66;24.34;102264.88;5091623;28;20059;-82
2022/04/10 11:18:25;;;;;;;4.82;1.85;;;;;;;20.04;25.62;102264.44;5072858;28;20067;-82
2022/04/10 11:20:58;;;;;;;3.53;1.90;;;;;;;20.51;23.13;102265.63;5091189;28;20101;-82
2022/04/10 11:23:30;;;;;;;5.03;1.50;;;;;;;19.61;25.94;102260.97;5091367;28;20463;-79
2022/04/10 11:26:06;;;;;;;6.30;1.65;;;;;;;20.42;25.01;102257.53;5091518;28;20068;-80
2022/04/10 11:28:52;;;;;;;7.03;1.65;;;;;;;20.60;24.59;102248.38;5091503;28;20047;-81
2022/04/10 11:31:31;;;;;;;8.80;1.80;;;;;;;20.44;23.71;102244.69;5091925;28;20039;-81